Terminal Aerodrome Forecast
Issued by NWS

Current Version | Previous Version | Text Only | Print | Product List | Glossary On
Versions: 1 2 3 4 5 6 7 8 9 10 11 12 13 14 15
000
FTAK31 PANC 122339
TAFAIL
TAF
PAIL 122339Z 1300/1324 09020G30KT P6SM -SHRA BKN030 OVC050
     FM130600 09016G26KT P6SM -SHRA SCT030 BKN050 OVC100
     FM131500 11012G20KT 6SM -RA BKN015 OVC030=

USA.gov is the U.S. government's official web portal to all federal, state and local government web resources and services.